createdAt,value
2019-02-17T00:00:05.283Z,26.83
2019-02-17T00:02:33.836Z,29.23
2019-02-17T00:05:02.367Z,30.10
2019-02-17T00:07:30.856Z,30.60
2019-02-17T00:09:59.383Z,29.40
2019-02-17T00:12:27.868Z,28.70
2019-02-17T00:14:56.391Z,27.97
2019-02-17T00:17:24.944Z,28.93
2019-02-17T00:19:53.404Z,27.97
2019-02-17T00:22:21.888Z,27.57
2019-02-17T00:24:50.424Z,28.63
2019-02-17T00:27:19.317Z,27.50
2019-02-17T00:29:47.848Z,26.87
2019-02-17T00:32:16.411Z,26.77
2019-02-17T00:34:44.876Z,27.50
2019-02-17T00:37:13.360Z,27.93
2019-02-17T00:39:41.824Z,28.60
2019-02-17T00:42:10.717Z,27.73
2019-02-17T00:44:39.248Z,28.80
2019-02-17T00:47:07.735Z,27.83
2019-02-17T00:49:36.183Z,28.17
2019-02-17T00:52:04.811Z,27.30
2019-02-17T00:54:33.267Z,30.03
2019-02-17T00:57:01.756Z,29.30
2019-02-17T00:59:30.592Z,29.20
2019-02-17T01:01:59.162Z,29.27
2019-02-17T01:04:27.699Z,29.20
2019-02-17T01:06:56.556Z,29.47
2019-02-17T01:09:25.014Z,30.87
2019-02-17T01:11:53.504Z,28.97
2019-02-17T01:14:22.038Z,29.90
2019-02-17T01:16:50.668Z,29.47
2019-02-17T01:19:19.204Z,29.53
2019-02-17T01:21:47.763Z,30.90
2019-02-17T01:24:16.218Z,28.97
2019-02-17T01:26:44.846Z,29.93
2019-02-17T01:29:20.171Z,29.40
2019-02-17T01:31:43.518Z,30.60
2019-02-17T01:34:12.145Z,28.53
2019-02-17T01:36:40.675Z,29.67
2019-02-17T01:39:09.275Z,27.70
2019-02-17T01:41:37.836Z,28.67
2019-02-17T01:44:06.440Z,27.47
2019-02-17T01:46:34.894Z,29.13
2019-02-17T01:49:03.383Z,28.10
2019-02-17T01:51:31.907Z,27.70
2019-02-17T01:54:00.392Z,28.70
2019-02-17T01:56:29.148Z,27.57
2019-02-17T01:58:57.627Z,27.90
2019-02-17T02:01:26.100Z,27.37
2019-02-17T02:03:54.655Z,27.20
2019-02-17T02:06:23.187Z,25.23
2019-02-17T02:08:51.672Z,25.83
2019-02-17T02:11:20.216Z,27.20
2019-02-17T02:13:48.871Z,25.83
2019-02-17T02:16:17.332Z,27.30
2019-02-17T02:18:45.795Z,26.50
2019-02-17T02:21:14.678Z,27.67
2019-02-17T02:23:43.236Z,25.80
2019-02-17T02:26:11.692Z,25.10
2019-02-17T02:28:40.153Z,26.37
2019-02-17T02:31:08.785Z,25.27
2019-02-17T02:33:37.316Z,25.90
2019-02-17T02:36:05.799Z,25.50
2019-02-17T02:38:34.259Z,25.07
2019-02-17T02:41:02.743Z,26.37
2019-02-17T02:43:31.520Z,26.67
2019-02-17T02:46:00.310Z,25.60
2019-02-17T02:48:28.841Z,26.17
2019-02-17T02:50:57.401Z,25.10
2019-02-17T02:53:25.931Z,26.70
2019-02-17T02:55:54.422Z,26.50
2019-02-17T02:58:22.948Z,25.03
2019-02-17T03:00:51.411Z,25.87
2019-02-17T03:03:19.972Z,25.60
2019-02-17T03:05:50.072Z,25.57
2019-02-17T03:08:18.563Z,24.20
2019-02-17T03:10:47.168Z,26.03
2019-02-17T03:13:15.651Z,25.43
2019-02-17T03:15:44.109Z,24.87
2019-02-17T03:18:12.592Z,25.00
2019-02-17T03:20:41.052Z,26.00
2019-02-17T03:23:09.537Z,24.90
2019-02-17T03:25:38.075Z,25.27
2019-02-17T03:28:06.649Z,24.10
2019-02-17T03:30:35.562Z,26.10
2019-02-17T03:33:04.215Z,26.27
2019-02-17T03:35:33.008Z,24.70
2019-02-17T03:38:01.502Z,24.50
2019-02-17T03:40:30.025Z,24.43
2019-02-17T03:42:58.483Z,24.60
2019-02-17T03:45:27.347Z,25.13
2019-02-17T03:47:55.947Z,25.00
2019-02-17T03:50:24.440Z,23.50
2019-02-17T03:52:52.976Z,24.60
2019-02-17T03:55:21.533Z,24.70
2019-02-17T03:57:50.065Z,24.80
2019-02-17T04:00:18.624Z,24.20
2019-02-17T04:02:47.155Z,25.33
2019-02-17T04:05:15.644Z,25.97
2019-02-17T04:07:44.108Z,24.43
2019-02-17T04:10:12.729Z,26.60
2019-02-17T04:12:41.328Z,25.90
2019-02-17T04:15:09.947Z,26.13
2019-02-17T04:17:38.484Z,25.13
2019-02-17T04:20:08.171Z,25.63
2019-02-17T04:22:36.695Z,24.20
2019-02-17T04:25:06.293Z,26.47
2019-02-17T04:27:34.819Z,23.70
2019-02-17T04:30:03.811Z,24.40
2019-02-17T04:32:32.267Z,24.10
2019-02-17T04:35:00.751Z,24.63
2019-02-17T04:37:29.639Z,23.53
2019-02-17T04:39:58.131Z,24.77
2019-02-17T04:42:26.664Z,24.17
2019-02-17T04:44:55.264Z,24.07
2019-02-17T04:47:23.749Z,24.37
2019-02-17T04:49:52.281Z,22.07
2019-02-17T04:52:20.905Z,23.93
2019-02-17T04:54:49.431Z,25.50
2019-02-17T04:57:17.991Z,24.80
2019-02-17T04:59:47.552Z,23.30
2019-02-17T05:02:16.031Z,24.13
2019-02-17T05:04:44.631Z,23.77
2019-02-17T05:07:13.112Z,24.00
2019-02-17T05:09:41.650Z,23.00
2019-02-17T05:12:10.271Z,23.37
2019-02-17T05:14:38.805Z,23.27
2019-02-17T05:17:07.335Z,24.27
2019-02-17T05:19:35.897Z,24.23
2019-02-17T05:22:04.431Z,23.87
2019-02-17T05:24:32.986Z,23.20
2019-02-17T05:27:01.522Z,23.73
2019-02-17T05:29:30.068Z,23.57
2019-02-17T05:31:58.603Z,22.90
2019-02-17T05:34:27.093Z,25.93
2019-02-17T05:36:55.621Z,23.50
2019-02-17T05:39:24.176Z,22.97
2019-02-17T05:41:52.632Z,23.77
2019-02-17T05:44:21.163Z,23.40
2019-02-17T05:46:49.640Z,24.10
2019-02-17T05:49:18.173Z,24.80
2019-02-17T05:51:46.732Z,24.20
2019-02-17T05:54:15.267Z,25.40
2019-02-17T05:56:43.816Z,24.23
2019-02-17T05:59:12.276Z,23.53
2019-02-17T06:01:40.831Z,23.10
2019-02-17T06:04:09.370Z,23.50
2019-02-17T06:06:37.925Z,24.10
2019-02-17T06:09:06.449Z,25.27
2019-02-17T06:11:34.979Z,23.87
2019-02-17T06:14:03.457Z,37.60
2019-02-17T06:16:31.919Z,25.80
2019-02-17T06:19:00.467Z,25.13
2019-02-17T06:21:28.920Z,25.47
2019-02-17T06:23:57.405Z,25.13
2019-02-17T06:26:25.931Z,22.93
2019-02-17T06:28:54.415Z,23.33
2019-02-17T06:31:22.939Z,22.63
2019-02-17T06:33:51.423Z,23.50
2019-02-17T06:36:19.955Z,24.43
2019-02-17T06:38:48.740Z,24.00
2019-02-17T06:41:17.199Z,22.67
2019-02-17T06:43:45.984Z,23.23
2019-02-17T06:46:16.412Z,21.57
2019-02-17T06:48:44.971Z,24.00
2019-02-17T06:51:13.436Z,23.40
2019-02-17T06:53:41.995Z,23.27
2019-02-17T06:56:14.813Z,22.60
2019-02-17T06:58:43.371Z,23.47
2019-02-17T07:01:12.132Z,23.73
2019-02-17T07:03:40.619Z,22.87
2019-02-17T07:06:19.990Z,22.57
2019-02-17T07:08:48.547Z,23.70
2019-02-17T07:11:17.081Z,22.63
2019-02-17T07:13:45.615Z,24.87
2019-02-17T07:16:14.075Z,23.80
2019-02-17T07:18:42.527Z,23.57
2019-02-17T07:21:11.017Z,24.47
2019-02-17T07:23:39.552Z,24.00
2019-02-17T07:26:08.034Z,24.47
2019-02-17T07:28:36.564Z,25.33
2019-02-17T07:31:05.044Z,24.77
2019-02-17T07:33:33.499Z,24.53
2019-02-17T07:36:02.129Z,24.73
2019-02-17T07:38:30.666Z,24.57
2019-02-17T07:40:59.219Z,25.80
2019-02-17T07:43:27.677Z,24.57
2019-02-17T07:45:56.308Z,25.40
2019-02-17T07:48:24.767Z,25.03
2019-02-17T07:50:53.323Z,25.83
2019-02-17T07:53:21.784Z,24.00
2019-02-17T07:55:50.267Z,25.40
2019-02-17T07:58:18.732Z,25.80
2019-02-17T08:00:47.217Z,25.60
2019-02-17T08:03:15.751Z,25.30
2019-02-17T08:05:44.279Z,27.70
2019-02-17T08:08:13.047Z,24.60
2019-02-17T08:10:41.575Z,23.93
2019-02-17T08:13:10.054Z,24.63
2019-02-17T08:15:38.939Z,25.70
2019-02-17T08:18:07.396Z,24.87
2019-02-17T08:20:36.558Z,26.67
2019-02-17T08:23:05.288Z,26.27
2019-02-17T08:25:33.753Z,25.63
2019-02-17T08:28:02.306Z,26.20
2019-02-17T08:30:30.768Z,26.30
2019-02-17T08:32:59.325Z,25.20
2019-02-17T08:35:27.859Z,27.77
2019-02-17T08:37:56.711Z,27.80
2019-02-17T08:40:25.651Z,26.40
2019-02-17T08:42:54.205Z,25.90
2019-02-17T08:45:22.695Z,26.37
2019-02-17T08:47:51.179Z,25.53
2019-02-17T08:50:20.118Z,25.47
2019-02-17T08:52:48.863Z,25.40
2019-02-17T08:55:17.387Z,25.90
2019-02-17T08:57:46.195Z,25.03
2019-02-17T09:00:14.952Z,24.60
2019-02-17T09:02:43.576Z,22.33
2019-02-17T09:05:12.108Z,23.70
2019-02-17T09:07:40.736Z,25.13
2019-02-17T09:10:11.767Z,25.40
2019-02-17T09:12:40.298Z,24.60
2019-02-17T09:15:11.871Z,26.40
2019-02-17T09:17:40.402Z,25.67
2019-02-17T09:20:10.729Z,25.20
2019-02-17T09:22:39.256Z,26.43
2019-02-17T09:25:10.181Z,26.73
2019-02-17T09:27:38.722Z,26.67
2019-02-17T09:30:11.120Z,26.27
2019-02-17T09:32:39.575Z,25.30
2019-02-17T09:35:08.466Z,26.10
2019-02-17T09:37:36.923Z,25.73
2019-02-17T09:40:08.212Z,27.03
2019-02-17T09:42:36.671Z,26.17
2019-02-17T09:45:11.227Z,26.10
2019-02-17T09:47:39.759Z,26.53
2019-02-17T09:50:11.291Z,27.63
2019-02-17T09:52:40.019Z,26.90
2019-02-17T09:55:10.532Z,26.17
2019-02-17T09:57:39.466Z,26.20
2019-02-17T10:00:12.761Z,26.23
2019-02-17T10:02:41.295Z,27.83
2019-02-17T10:05:11.219Z,27.00
2019-02-17T10:07:39.675Z,26.40
2019-02-17T10:10:16.007Z,27.00
2019-02-17T10:12:44.544Z,27.30
2019-02-17T10:15:13.740Z,26.13
2019-02-17T10:17:42.408Z,26.47
2019-02-17T10:20:12.803Z,27.20
2019-02-17T10:22:41.327Z,26.90
2019-02-17T10:25:10.356Z,26.43
2019-02-17T10:27:38.896Z,26.03
2019-02-17T10:30:15.311Z,27.33
2019-02-17T10:32:44.091Z,27.90
2019-02-17T10:35:12.791Z,26.70
2019-02-17T10:37:41.239Z,26.03
2019-02-17T10:40:12.634Z,25.40
2019-02-17T10:42:41.104Z,27.80
2019-02-17T10:45:10.791Z,26.83
2019-02-17T10:47:39.257Z,26.77
2019-02-17T10:50:10.547Z,25.97
2019-02-17T10:52:39.075Z,26.27
2019-02-17T10:55:09.671Z,28.17
2019-02-17T10:57:38.131Z,27.93
2019-02-17T11:00:12.326Z,27.17
2019-02-17T11:02:47.060Z,28.33
2019-02-17T11:05:11.803Z,28.27
2019-02-17T11:07:40.331Z,27.97
2019-02-17T11:10:10.727Z,27.83
2019-02-17T11:12:39.256Z,27.20
2019-02-17T11:15:13.761Z,27.30
2019-02-17T11:17:42.219Z,26.30
2019-02-17T11:20:10.877Z,26.27
2019-02-17T11:22:39.336Z,25.93
2019-02-17T11:25:08.232Z,27.40
2019-02-17T11:27:36.691Z,26.70
2019-02-17T11:30:14.401Z,27.63
2019-02-17T11:32:42.939Z,26.60
2019-02-17T11:35:11.615Z,26.63
2019-02-17T11:37:40.548Z,28.20
2019-02-17T11:40:11.253Z,28.13
2019-02-17T11:42:39.895Z,27.77
2019-02-17T11:45:17.204Z,26.73
2019-02-17T11:47:45.765Z,28.03
2019-02-17T11:50:15.871Z,27.73
2019-02-17T11:52:44.624Z,27.47
2019-02-17T11:55:15.472Z,28.80
2019-02-17T11:57:44.033Z,28.30
2019-02-17T12:00:21.291Z,29.37
2019-02-17T12:02:50.148Z,28.50
2019-02-17T12:05:18.684Z,29.10
2019-02-17T12:07:47.142Z,28.13
2019-02-17T12:10:15.772Z,29.20
2019-02-17T12:12:44.591Z,28.30
2019-02-17T12:15:14.171Z,29.60
2019-02-17T12:17:42.852Z,28.50
2019-02-17T12:20:37.311Z,28.40
2019-02-17T12:23:13.391Z,30.23
2019-02-17T12:25:43.587Z,29.43
2019-02-17T12:28:19.422Z,28.53
2019-02-17T12:30:49.552Z,29.10
2019-02-17T12:33:21.510Z,29.97
2019-02-17T12:35:48.295Z,29.47
2019-02-17T12:38:16.755Z,29.23
2019-02-17T12:40:45.240Z,29.73
2019-02-17T12:43:13.701Z,29.90
2019-02-17T12:45:42.336Z,29.37
2019-02-17T12:48:10.872Z,30.67
2019-02-17T12:50:39.331Z,29.20
2019-02-17T12:53:07.815Z,30.47
2019-02-17T12:55:36.275Z,28.80
2019-02-17T12:58:04.879Z,30.67
2019-02-17T13:00:33.415Z,30.03
2019-02-17T13:03:02.043Z,31.20
2019-02-17T13:05:30.571Z,30.63
2019-02-17T13:07:59.061Z,31.03
2019-02-17T13:10:27.604Z,29.77
2019-02-17T13:12:56.163Z,29.73
2019-02-17T13:15:24.699Z,31.33
2019-02-17T13:17:53.183Z,30.20
2019-02-17T13:20:21.637Z,29.67
2019-02-17T13:22:50.101Z,29.53
2019-02-17T13:25:18.934Z,30.20
2019-02-17T13:27:47.390Z,29.60
2019-02-17T13:30:19.078Z,31.00
2019-02-17T13:32:47.539Z,30.50
2019-02-17T13:35:16.095Z,30.60
2019-02-17T13:37:44.968Z,32.10
2019-02-17T13:40:14.391Z,30.03
2019-02-17T13:42:42.927Z,31.10
2019-02-17T13:45:13.722Z,31.40
2019-02-17T13:47:42.254Z,30.27
2019-02-17T13:50:15.346Z,31.00
2019-02-17T13:52:44.039Z,31.97
2019-02-17T13:55:12.564Z,30.63
2019-02-17T13:57:41.115Z,30.43
2019-02-17T14:00:20.111Z,31.57
2019-02-17T14:02:48.767Z,30.27
2019-02-17T14:05:17.294Z,30.33
2019-02-17T14:07:46.304Z,31.67
2019-02-17T14:10:15.111Z,30.87
2019-02-17T14:12:43.667Z,31.40
2019-02-17T14:15:15.540Z,30.07
2019-02-17T14:17:44.023Z,31.17
2019-02-17T14:20:12.723Z,31.97
2019-02-17T14:22:41.211Z,31.00
2019-02-17T14:25:11.149Z,30.60
2019-02-17T14:27:40.614Z,30.70
2019-02-17T14:30:14.330Z,31.10
2019-02-17T14:32:42.859Z,31.00
2019-02-17T14:35:11.415Z,30.93
2019-02-17T14:37:39.879Z,30.00
2019-02-17T14:40:10.771Z,31.10
2019-02-17T14:42:39.303Z,30.10
2019-02-17T14:45:13.131Z,31.23
2019-02-17T14:47:41.592Z,31.03
2019-02-17T14:50:11.178Z,31.70
2019-02-17T14:52:39.698Z,30.97
2019-02-17T14:55:12.379Z,30.67
2019-02-17T14:57:41.226Z,32.03
2019-02-17T15:00:17.372Z,32.53
2019-02-17T15:02:45.832Z,31.70
2019-02-17T15:05:14.386Z,31.27
2019-02-17T15:07:42.847Z,31.33
2019-02-17T15:10:12.772Z,32.93
2019-02-17T15:12:41.303Z,32.43
2019-02-17T15:15:12.398Z,32.73
2019-02-17T15:17:40.861Z,33.30
2019-02-17T15:20:12.476Z,32.37
2019-02-17T15:22:40.955Z,32.53
2019-02-17T15:25:11.336Z,31.50
2019-02-17T15:27:39.823Z,32.50
2019-02-17T15:30:11.771Z,33.50
2019-02-17T15:32:40.331Z,33.30
2019-02-17T15:35:08.931Z,34.10
2019-02-17T15:37:37.422Z,32.30
2019-02-17T15:40:11.291Z,32.47
2019-02-17T15:42:39.779Z,33.67
2019-02-17T15:45:12.899Z,33.50
2019-02-17T15:47:41.383Z,32.13
2019-02-17T15:50:13.955Z,32.20
2019-02-17T15:52:42.513Z,32.57
2019-02-17T15:55:12.662Z,33.93
2019-02-17T15:57:41.311Z,33.20
2019-02-17T16:00:15.539Z,31.63
2019-02-17T16:02:44.087Z,32.23
2019-02-17T16:05:12.689Z,33.07
2019-02-17T16:07:41.227Z,45.97
2019-02-17T16:10:14.751Z,35.43
2019-02-17T16:12:43.235Z,32.20
2019-02-17T16:15:20.178Z,33.73
2019-02-17T16:17:48.711Z,34.60
2019-02-17T16:20:17.340Z,33.80
2019-02-17T16:22:45.868Z,32.57
2019-02-17T16:25:14.355Z,33.50
2019-02-17T16:27:42.959Z,32.33
2019-02-17T16:30:15.932Z,32.57
2019-02-17T16:32:44.472Z,34.07
2019-02-17T16:35:13.097Z,34.60
2019-02-17T16:37:41.708Z,35.73
2019-02-17T16:40:14.886Z,35.50
2019-02-17T16:42:43.424Z,34.93
2019-02-17T16:45:13.999Z,33.60
2019-02-17T16:47:42.875Z,36.97
2019-02-17T16:50:28.895Z,36.20
2019-02-17T16:52:57.431Z,35.83
2019-02-17T16:55:25.990Z,32.83
2019-02-17T16:57:54.860Z,32.83
2019-02-17T17:00:24.856Z,32.70
2019-02-17T17:02:55.398Z,31.53
2019-02-17T17:05:25.039Z,32.80
2019-02-17T17:07:53.871Z,34.10
2019-02-17T17:10:22.495Z,32.03
2019-02-17T17:12:51.381Z,33.67
2019-02-17T17:15:19.931Z,32.10
2019-02-17T17:17:48.532Z,34.00
2019-02-17T17:20:18.540Z,34.20
2019-02-17T17:22:47.146Z,35.23
2019-02-17T17:25:15.844Z,34.30
2019-02-17T17:27:44.336Z,34.77
2019-02-17T17:30:15.079Z,35.10
2019-02-17T17:32:43.713Z,35.50
2019-02-17T17:35:12.383Z,35.77
2019-02-17T17:37:40.935Z,36.87
2019-02-17T17:40:18.711Z,35.80
2019-02-17T17:42:47.246Z,36.93
2019-02-17T17:45:21.984Z,36.60
2019-02-17T17:47:50.627Z,35.80
2019-02-17T17:50:19.226Z,33.67
2019-02-17T17:52:48.044Z,35.10
2019-02-17T17:55:16.683Z,36.30
2019-02-17T17:57:45.175Z,35.70
2019-02-17T18:00:17.092Z,36.00
2019-02-17T18:02:45.717Z,35.33
2019-02-17T18:05:14.787Z,33.90
2019-02-17T18:07:43.345Z,40.90
2019-02-17T18:10:15.747Z,55.37
2019-02-17T18:12:44.313Z,36.57
2019-02-17T18:15:14.704Z,35.00
2019-02-17T18:17:53.513Z,34.97
2019-02-17T18:20:14.584Z,36.93
2019-02-17T18:22:43.147Z,37.30
2019-02-17T18:25:12.953Z,37.40
2019-02-17T18:27:41.506Z,36.77
2019-02-17T18:30:17.497Z,36.90
2019-02-17T18:32:45.984Z,37.37
2019-02-17T18:35:19.852Z,39.60
2019-02-17T18:37:45.032Z,41.00
2019-02-17T18:40:20.551Z,41.83
2019-02-17T18:42:49.076Z,41.70
2019-02-17T18:45:17.627Z,42.37
2019-02-17T18:47:46.109Z,43.87
2019-02-17T18:50:18.952Z,41.47
2019-02-17T18:52:47.432Z,43.10
2019-02-17T18:55:16.080Z,41.00
2019-02-17T18:57:50.153Z,40.30
2019-02-17T19:00:25.323Z,42.00
2019-02-17T19:02:53.879Z,41.03
2019-02-17T19:05:31.691Z,40.00
2019-02-17T19:07:52.991Z,41.97
2019-02-17T19:10:21.892Z,41.30
2019-02-17T19:12:50.779Z,40.77
2019-02-17T19:15:20.549Z,39.23
2019-02-17T19:17:49.035Z,39.47
2019-02-17T19:20:31.583Z,38.53
2019-02-17T19:23:00.143Z,36.27
2019-02-17T19:25:28.957Z,39.90
2019-02-17T19:27:57.492Z,38.57
2019-02-17T19:30:25.967Z,37.10
2019-02-17T19:32:55.532Z,35.77
2019-02-17T19:35:24.014Z,35.93
2019-02-17T19:37:52.539Z,37.97
2019-02-17T19:40:21.023Z,37.37
2019-02-17T19:42:49.551Z,36.97
2019-02-17T19:45:19.572Z,37.13
2019-02-17T19:47:48.123Z,37.77
2019-02-17T19:50:17.301Z,37.20
2019-02-17T19:52:45.909Z,37.73
2019-02-17T19:55:14.979Z,37.00
2019-02-17T19:57:43.541Z,37.30
2019-02-17T20:00:22.367Z,37.37
2019-02-17T20:03:04.511Z,38.93
2019-02-17T20:05:35.375Z,39.87
2019-02-17T20:08:04.303Z,38.60
2019-02-17T20:10:33.156Z,37.67
2019-02-17T20:13:01.945Z,38.40
2019-02-17T20:15:32.483Z,38.50
2019-02-17T20:18:01.107Z,38.10
2019-02-17T20:20:29.555Z,37.30
2019-02-17T20:22:58.036Z,38.77
2019-02-17T20:25:26.566Z,36.37
2019-02-17T20:27:55.101Z,37.23
2019-02-17T20:30:23.718Z,37.37
2019-02-17T20:32:52.465Z,36.90
2019-02-17T20:35:21.347Z,36.97
2019-02-17T20:37:49.812Z,37.40
2019-02-17T20:40:19.067Z,37.93
2019-02-17T20:42:47.599Z,37.90
2019-02-17T20:45:16.159Z,36.67
2019-02-17T20:47:44.683Z,37.57
2019-02-17T20:50:15.155Z,38.37
2019-02-17T20:52:43.711Z,36.93
2019-02-17T20:55:12.905Z,37.70
2019-02-17T20:57:41.383Z,37.10
2019-02-17T21:00:12.714Z,38.03
2019-02-17T21:02:41.201Z,37.57
2019-02-17T21:05:10.668Z,38.10
2019-02-17T21:07:39.152Z,37.90
2019-02-17T21:10:12.295Z,37.20
2019-02-17T21:12:40.920Z,38.70
2019-02-17T21:15:18.110Z,40.37
2019-02-17T21:17:46.739Z,37.97
2019-02-17T21:20:16.479Z,38.00
2019-02-17T21:22:45.095Z,37.67
2019-02-17T21:25:14.459Z,37.50
2019-02-17T21:27:42.944Z,37.77
2019-02-17T21:30:16.838Z,37.60
2019-02-17T21:32:45.495Z,36.03
2019-02-17T21:35:17.268Z,37.57
2019-02-17T21:37:45.893Z,36.93
2019-02-17T21:40:14.991Z,39.23
2019-02-17T21:42:43.545Z,39.30
2019-02-17T21:45:12.942Z,35.87
2019-02-17T21:47:41.559Z,35.43
2019-02-17T21:50:12.120Z,36.00
2019-02-17T21:52:41.898Z,34.87
2019-02-17T21:55:13.185Z,36.07
2019-02-17T21:57:41.745Z,36.13
2019-02-17T22:00:15.157Z,36.50
2019-02-17T22:02:43.680Z,35.40
2019-02-17T22:05:12.304Z,36.47
2019-02-17T22:07:40.835Z,36.50
2019-02-17T22:10:12.160Z,35.57
2019-02-17T22:12:40.620Z,36.27
2019-02-17T22:15:16.343Z,37.40
2019-02-17T22:17:44.801Z,35.67
2019-02-17T22:20:13.994Z,37.33
2019-02-17T22:22:42.453Z,36.00
2019-02-17T22:25:11.248Z,37.00
2019-02-17T22:27:39.709Z,38.33
2019-02-17T22:30:10.903Z,38.23
2019-02-17T22:32:39.366Z,35.30
2019-02-17T22:35:08.469Z,34.80
2019-02-17T22:37:37.070Z,35.57
2019-02-17T22:40:09.091Z,37.13
2019-02-17T22:42:37.558Z,37.27
2019-02-17T22:45:08.947Z,36.27
2019-02-17T22:47:37.419Z,36.87
2019-02-17T22:50:16.323Z,36.07
2019-02-17T22:52:47.556Z,35.97
2019-02-17T22:55:16.109Z,35.97
2019-02-17T22:57:44.641Z,37.40
2019-02-17T23:00:48.070Z,37.53
2019-02-17T23:03:16.955Z,37.67
2019-02-17T23:05:45.509Z,37.10
2019-02-17T23:08:14.045Z,37.30
2019-02-17T23:10:42.695Z,38.53
2019-02-17T23:13:11.287Z,38.53
2019-02-17T23:15:39.911Z,38.00
2019-02-17T23:18:08.440Z,39.70
2019-02-17T23:20:36.987Z,37.80
2019-02-17T23:23:05.719Z,37.90
2019-02-17T23:25:34.207Z,37.40
2019-02-17T23:28:02.663Z,35.47
2019-02-17T23:30:31.143Z,35.77
2019-02-17T23:32:59.604Z,36.70
2019-02-17T23:35:28.083Z,34.17
2019-02-17T23:37:56.610Z,35.53
2019-02-17T23:40:25.096Z,35.60
2019-02-17T23:42:53.980Z,36.33
2019-02-17T23:45:22.534Z,35.83
2019-02-17T23:47:50.992Z,36.27
2019-02-17T23:50:19.471Z,34.93
2019-02-17T23:52:47.995Z,36.93
2019-02-17T23:55:16.487Z,35.83
2019-02-17T23:57:45.016Z,34.83
